Terminal Aerodrome Forecast
Issued by NWS Charleston, WV

Current Version | Previous Version | Graphics & Text | Print | Product List | Glossary On
Versions: 1 2 3 4 5 6 7 8 9 10 11 12 13 14 15 16 17 18 19 20 21 22 23 24 25 26 27 28 29 30
000
FTUS41 KRLX 262000 AAA
TAFPKB
TAF AMD
KPKB 262001Z 2620/2718 32007KT P6SM OVC015
     FM270000 28004KT P6SM OVC015
     FM270300 29005KT P6SM BKN020
     FM270500 30005KT P6SM BKN050
     FM271200 32004KT P6SM BKN015
     FM271600 32005KT P6SM BKN025
     FM271700 31006KT P6SM BKN035=

USA.gov is the U.S. government's official web portal to all federal, state and local government web resources and services.